Latest Weather Observations for Spring Bay

IDT60801

Issued at 6:35 pm EDT Saturday 1 November 2014 (issued every 30 minutes, with the page automatically refreshed every 10 minutes)

About weather observations | Map of weather stations | Latest weather observations for TAS | Other Formats
Station Details ID: 092133 Name: SPRING BAY NTC AWS Lat: -42.55 Lon: 147.93 Height: 0.0 m
Data from the previous 72 hours. | See also: Recent months for locations in Tasmania
Date/Time
EDT
Temp
°C
App
Temp
°C
Dew
Point
Rel
Hum
%
Delta-T
°C
Wind Press
QNH
hPa
Press
MSL
hPa
Rain
since 9 am
mm
Dir
 
Spd
km/h
Gust
km/h
Spd
kts
Gust
kts
31/10:30pm 16.7 - - - - - - - - - 995.5 - -
31/10:00pm 16.9 - - - - - - - - - 995.8 995.8 -
31/09:30pm 16.9 - - - - - - - - - 996.0 - -
31/09:00pm 16.9 - - - - - - - - - 996.1 996.1 -
31/08:30pm 16.9 - - - - - - - - - 996.3 - -
31/08:00pm 17.2 - - - - - - - - - 996.3 996.3 -
31/07:30pm 17.3 - - - - - - - - - 996.5 - -
31/07:00pm 17.8 - - - - - - - - - 996.9 996.9 -
31/06:30pm 17.8 - - - - - - - - - 997.0 - -
31/06:00pm 18.0 - - - - - - - - - 997.4 997.4 -
31/05:30pm 18.1 - - - - - - - - - 998.0 - -
31/05:00pm 18.8 - - - - - - - - - 998.4 998.4 -
31/04:30pm 17.7 - - - - - - - - - 998.9 - -
31/04:00pm 17.4 - - - - - - - - - 999.5 999.5 -
31/03:30pm 17.2 - - - - - - - - - 999.6 - -
31/03:00pm 17.9 - - - - - - - - - 1000.2 1000.2 -
31/02:30pm 17.6 - - - - - - - - - 1000.5 - -
31/02:00pm 17.4 - - - - - - - - - 1000.6 1000.6 -
31/01:30pm 16.9 - - - - - - - - - 1000.7 - -
31/01:00pm 16.7 - - - - - - - - - 1001.7 1001.7 -
31/12:30pm 16.0 - - - - - - - - - 1001.9 - -
31/12:00pm 15.4 - - - - - - - - - 1002.4 1002.4 -
31/11:30am 14.7 - - - - - - - - - 1003.1 - -
31/11:00am 14.3 - - - - - - - - - 1003.5 1003.5 -
31/10:30am 14.1 - - - - - - - - - 1004.1 - -
31/10:00am 13.7 - - - - - - - - - 1004.2 1004.2 -
31/09:30am 13.2 - - - - - - - - - 1004.8 - -
31/09:00am 12.9 - - - - - - - - - 1005.2 1005.2 -
31/08:30am 12.8 - - - - - - - - - 1005.2 - -
31/08:00am 12.8 - - - - - - - - - 1005.9 1005.9 -
31/07:30am 12.7 - - - - - - - - - 1005.8 - -
31/07:00am 12.5 - - - - - - - - - 1005.9 1005.9 -
31/06:30am 12.3 - - - - - - - - - 1005.7 - -
31/06:00am 12.2 - - - - - - - - - 1005.9 1005.9 -
31/05:30am 12.3 - - - - - - - - - 1005.7 - -
31/05:00am 12.4 - - - - - - - - - 1005.8 1005.8 -
31/04:30am 12.5 - - - - - - - - - 1006.0 - -
31/04:00am 12.6 - - - - - - - - - 1006.4 1006.4 -
31/03:30am 12.2 - - - - - - - - - 1006.6 - -
31/03:00am 10.2 - - - - - - - - - 1006.9 1006.9 -
31/02:30am 10.1 - - - - - - - - - 1007.1 - -
31/02:00am 9.9 - - - - - - - - - 1007.3 1007.3 -
31/01:30am 9.9 - - - - - - - - - 1007.8 - -
31/01:00am 10.2 - - - - - - - - - 1008.0 1008.0 -
31/12:30am 10.3 - - - - - - - - - 1008.5 - -
31/12:00am 10.4 - - - - - - - - - 1008.8 1008.8 -
 
Date/Time
EDT
Temp
°C
App
Temp
°C
Dew
Point
Rel
Hum
%
Delta-T
°C
Wind Press
QNH
hPa
Press
MSL
hPa
Rain
since 9 am
mm
Dir
 
Spd
km/h
Gust
km/h
Spd
kts
Gust
kts
30/11:30pm 10.6 - - - - - - - - - 1008.8 - -
30/11:00pm 10.9 - - - - - - - - - 1009.0 1009.0 -
30/10:30pm 11.0 - - - - - - - - - 1009.0 - -
30/10:00pm 10.9 - - - - - - - - - 1009.3 1009.3 -
30/09:30pm 11.2 - - - - - - - - - 1009.1 - -
30/09:00pm 11.3 - - - - - - - - - 1009.2 1009.2 -
30/08:30pm 11.6 - - - - - - - - - 1009.1 - -
30/08:00pm 11.9 - - - - - - - - - 1008.7 1008.7 -
30/07:30pm 12.2 - - - - - - - - - 1008.6 - -
30/07:00pm 12.2 - - - - - - - - - 1008.4 1008.4 -
30/06:30pm 12.3 - - - - - - - - - 1008.1 - -
30/06:00pm 12.4 - - - - CALM 0 0 0 0 1008.1 1008.1 -
30/05:30pm 12.6 - - - - CALM 0 0 0 0 1007.7 1007.7 -
30/05:00pm 12.1 - - - - CALM 0 0 0 0 1007.8 1007.8 -
30/04:30pm 11.7 - - - - CALM 0 0 0 0 1007.8 1007.8 -
30/04:00pm 11.4 - - - - CALM 0 0 0 0 1008.0 1008.0 -
30/03:30pm 11.8 - - - - - - - - - 1007.5 - -
30/03:00pm 12.6 - - - - - - - - - 1007.3 1007.3 -
30/02:30pm 12.2 - - - - - - - - - 1007.3 - -
30/02:00pm 12.3 - - - - CALM 0 0 0 0 1007.2 1007.2 -
30/01:30pm 12.7 - - - - - - - - - 1007.2 - -
30/01:00pm 13.2 - - - - CALM 0 0 0 0 1007.0 1007.0 -
30/12:30pm 13.8 - - - - CALM 0 0 0 0 1006.8 1006.8 -
30/12:00pm 16.9 - - - - - - - - - 1006.6 1006.6 -
30/11:30am 16.5 - - - - - - - - - 1007.0 - -
30/11:00am 15.9 - - - - - - - - - 1007.0 1007.0 -
30/10:30am 15.9 - - - - - - - - - 1007.0 - -
30/10:00am 15.9 - - - - - - - - - 1007.0 1007.0 -
30/09:30am 15.6 - - - - - - - - - 1007.1 - -
30/09:00am 14.9 - - - - - - - - - 1007.3 1007.3 -
30/08:30am 14.6 - - - - - - - - - 1007.3 - -
30/08:00am 13.4 - - - - - - - - - 1007.4 1007.4 -
30/07:30am 13.4 - - - - - - - - - 1007.2 - -
30/07:00am 12.9 - - - - - - - - - 1006.9 1006.9 -
30/06:30am 13.0 - - - - - - - - - 1006.6 - -
30/06:00am 12.3 - - - - - - - - - 1006.4 1006.4 -

Other Formats:

Comma delimited format used in spreadsheet applications
http://www.bom.gov.au/fwo/IDT60801/IDT60801.95987.axf

JavaScript Object Notation format (JSON) in row-major order
http://www.bom.gov.au/fwo/IDT60801/IDT60801.95987.json